Time;durP1;ratioP1;P1;durP2;ratioP2;P2;SDS_P1;SDS_P2;PMS_P1;PMS_P2;Temp;Humidity;BMP_temperature;BMP_pressure;BME280_temperature;BME280_humidity;BME280_pressure;Samples;Min_cycle;Max_cycle;Signal;HPM_P1;HPM_P2
2022/07/02 00:01:10;;;;;;;5.90;5.45;;;12.40;99.90;;;;;;5014326;28;20640;-72
2022/07/02 00:03:42;;;;;;;7.30;6.40;;;12.40;99.90;;;;;;5013983;28;20255;-71
2022/07/02 00:06:10;;;;;;;5.72;5.20;;;12.40;99.90;;;;;;5014842;28;20297;-73
2022/07/02 00:08:35;;;;;;;7.45;5.93;;;12.50;99.90;;;;;;5014219;28;20255;-72
2022/07/02 00:11:03;;;;;;;8.50;5.68;;;12.40;99.90;;;;;;5014455;28;20256;-73
2022/07/02 00:13:29;;;;;;;6.30;5.70;;;12.40;99.90;;;;;;5014637;28;20170;-73
2022/07/02 00:15:55;;;;;;;5.85;5.35;;;12.50;99.90;;;;;;5027895;28;20191;-72
2022/07/02 00:18:21;;;;;;;6.15;5.65;;;12.40;99.90;;;;;;5042480;28;20256;-73
2022/07/02 00:20:47;;;;;;;7.50;5.47;;;12.50;99.90;;;;;;5044268;28;20184;-73
2022/07/02 00:23:13;;;;;;;6.53;5.78;;;12.40;99.90;;;;;;5033629;28;20644;-73
2022/07/02 00:25:43;;;;;;;5.43;4.93;;;12.40;99.90;;;;;;5013549;28;20227;-75
2022/07/02 00:28:15;;;;;;;5.20;4.78;;;12.40;99.90;;;;;;5014228;28;20239;-72
2022/07/02 00:30:45;;;;;;;5.75;5.35;;;12.30;99.90;;;;;;5013667;28;20274;-73
2022/07/02 00:33:13;;;;;;;5.75;5.28;;;12.30;99.90;;;;;;5012394;28;20177;-73
2022/07/02 00:35:40;;;;;;;6.55;5.95;;;12.20;99.90;;;;;;5014356;28;20247;-72
2022/07/02 00:38:07;;;;;;;6.35;5.85;;;12.20;99.90;;;;;;5013409;28;20212;-73
2022/07/02 00:40:33;;;;;;;6.60;5.88;;;12.20;99.90;;;;;;5014118;28;20215;-72
2022/07/02 00:42:59;;;;;;;7.18;6.57;;;12.30;99.90;;;;;;5013394;28;20204;-72
2022/07/02 00:45:26;;;;;;;6.70;6.10;;;12.30;99.90;;;;;;5012560;28;20189;-71
2022/07/02 00:47:54;;;;;;;10.32;6.50;;;12.30;99.90;;;;;;5014109;28;20204;-72
2022/07/02 00:50:21;;;;;;;6.40;5.75;;;12.40;99.90;;;;;;5013563;28;20176;-73
2022/07/02 00:52:46;;;;;;;7.13;5.82;;;12.30;99.90;;;;;;5014107;28;20185;-73
2022/07/02 00:55:13;;;;;;;6.30;5.70;;;12.30;99.90;;;;;;5041364;28;20196;-72
2022/07/02 00:57:39;;;;;;;5.95;5.45;;;12.20;99.90;;;;;;5044374;28;20225;-72
2022/07/02 01:00:06;;;;;;;5.90;5.40;;;12.20;99.90;;;;;;5021371;28;20272;-73
2022/07/02 01:02:35;;;;;;;6.13;5.63;;;12.20;99.90;;;;;;5043899;28;20194;-73
2022/07/02 01:05:01;;;;;;;5.70;5.30;;;12.20;99.90;;;;;;5032201;28;20755;-73
2022/07/02 01:07:28;;;;;;;7.68;6.30;;;12.20;99.90;;;;;;5033234;28;20279;-72
2022/07/02 01:12:44;;;;;;;6.78;6.28;;;12.10;99.90;;;;;;5032840;28;20223;-72
2022/07/02 01:15:10;;;;;;;7.88;6.90;;;12.10;99.90;;;;;;5032818;28;20196;-71
2022/07/02 01:17:36;;;;;;;7.72;6.30;;;12.20;99.90;;;;;;5019601;28;20230;-72
2022/07/02 01:20:05;;;;;;;9.68;6.90;;;12.20;99.90;;;;;;5013226;28;20177;-72
2022/07/02 01:22:35;;;;;;;6.50;6.00;;;12.20;99.90;;;;;;5012784;28;20181;-73
2022/07/02 01:25:02;;;;;;;7.05;6.50;;;12.20;99.90;;;;;;5012874;28;20201;-72
2022/07/02 01:27:28;;;;;;;7.32;6.25;;;12.20;99.90;;;;;;5012993;28;20205;-72
2022/07/02 01:29:54;;;;;;;8.60;5.82;;;12.30;99.90;;;;;;5013043;28;20689;-73
2022/07/02 01:32:20;;;;;;;8.77;6.18;;;12.30;99.90;;;;;;5015054;28;20211;-72
2022/07/02 01:34:52;;;;;;;8.15;6.13;;;12.40;99.90;;;;;;5032225;28;20200;-72
2022/07/02 01:37:20;;;;;;;7.78;6.93;;;12.40;99.90;;;;;;5032150;28;20181;-74
2022/07/02 01:39:46;;;;;;;14.73;6.05;;;12.50;99.90;;;;;;5032931;28;20176;-75
2022/07/02 01:42:13;;;;;;;7.57;6.88;;;12.50;99.90;;;;;;5014159;28;20606;-72
2022/07/02 01:44:40;;;;;;;9.52;6.88;;;12.60;99.90;;;;;;5012983;28;20216;-73
2022/07/02 01:47:10;;;;;;;16.35;6.05;;;12.60;99.90;;;;;;5013161;28;20567;-72
2022/07/02 01:49:37;;;;;;;8.88;5.25;;;12.70;99.90;;;;;;5012810;28;20185;-72
2022/07/02 01:52:04;;;;;;;7.50;5.20;;;12.80;99.90;;;;;;5012411;28;20169;-72
2022/07/02 01:54:30;;;;;;;6.82;5.40;;;12.80;99.90;;;;;;5012198;28;20272;-74
2022/07/02 01:56:57;;;;;;;7.13;6.40;;;12.70;99.90;;;;;;5012946;28;20248;-72
2022/07/02 01:59:23;;;;;;;6.97;6.25;;;12.60;99.90;;;;;;5028930;28;20221;-73
2022/07/02 02:01:49;;;;;;;9.07;5.88;;;12.50;99.90;;;;;;5032160;28;20265;-74
2022/07/02 02:04:15;;;;;;;11.85;5.85;;;12.50;99.90;;;;;;5032490;28;20798;-73
2022/07/02 02:06:40;;;;;;;9.68;6.95;;;12.50;99.90;;;;;;5032229;28;20291;-73
2022/07/02 02:09:06;;;;;;;19.05;6.32;;;12.50;99.90;;;;;;5012655;28;20259;-73
2022/07/02 02:11:32;;;;;;;23.08;6.13;;;12.50;99.90;;;;;;5012544;28;20174;-73
2022/07/02 02:13:59;;;;;;;15.35;6.38;;;12.50;99.90;;;;;;5016120;28;20205;-72
2022/07/02 02:16:26;;;;;;;15.25;6.68;;;12.40;99.90;;;;;;5031037;28;20644;-71
2022/07/02 02:18:52;;;;;;;26.50;7.55;;;12.40;99.90;;;;;;5032922;28;20185;-73
2022/07/02 02:21:18;;;;;;;27.88;6.22;;;12.40;99.90;;;;;;5044019;28;20178;-72
2022/07/02 02:23:43;;;;;;;24.58;6.70;;;12.40;99.90;;;;;;5042760;28;20196;-73
2022/07/02 02:26:09;;;;;;;22.00;5.80;;;12.50;99.90;;;;;;5029147;28;21276;-73
2022/07/02 02:28:35;;;;;;;12.55;5.68;;;12.40;99.90;;;;;;5012712;28;20284;-73
2022/07/02 02:31:01;;;;;;;6.13;5.60;;;12.30;99.90;;;;;;5012300;28;20181;-73
2022/07/02 02:33:26;;;;;;;21.10;6.00;;;12.30;99.90;;;;;;5012117;28;20683;-72
2022/07/02 02:35:52;;;;;;;6.53;6.03;;;12.30;99.90;;;;;;5012041;28;20258;-73
2022/07/02 02:38:17;;;;;;;10.85;6.72;;;12.40;99.90;;;;;;5018096;28;20184;-73
2022/07/02 02:40:43;;;;;;;8.77;5.30;;;12.40;99.90;;;;;;5027379;28;20192;-76
2022/07/02 02:43:09;;;;;;;5.82;5.38;;;12.50;99.90;;;;;;5043457;28;20676;-73
2022/07/02 02:45:35;;;;;;;5.50;5.10;;;12.40;99.90;;;;;;5033111;28;20183;-73
2022/07/02 02:48:00;;;;;;;9.57;6.28;;;12.50;99.90;;;;;;5032398;28;20204;-73
2022/07/02 02:50:26;;;;;;;6.55;5.93;;;12.50;99.90;;;;;;5035341;28;20624;-73
2022/07/02 02:52:52;;;;;;;6.85;6.35;;;12.50;99.90;;;;;;5035424;28;20176;-73
2022/07/02 02:55:18;;;;;;;7.45;6.78;;;12.50;99.90;;;;;;5029673;28;20212;-73
2022/07/02 02:57:44;;;;;;;6.78;6.18;;;12.50;99.90;;;;;;5015865;28;20174;-73
2022/07/02 03:00:10;;;;;;;7.35;6.75;;;12.50;99.90;;;;;;5015689;28;20542;-73
2022/07/02 03:02:36;;;;;;;8.65;6.55;;;12.50;99.90;;;;;;5014810;28;20205;-73
2022/07/02 03:05:01;;;;;;;6.30;5.85;;;12.60;99.90;;;;;;5015459;28;20225;-72
2022/07/02 03:07:27;;;;;;;12.77;6.72;;;12.80;99.90;;;;;;5015227;28;20292;-73
2022/07/02 03:09:53;;;;;;;12.20;7.18;;;12.70;99.90;;;;;;5015790;28;20255;-73
2022/07/02 03:12:18;;;;;;;38.53;7.80;;;12.70;99.90;;;;;;5014938;28;20196;-73
2022/07/02 03:14:44;;;;;;;24.33;8.68;;;12.70;99.90;;;;;;5015232;28;20204;-73
2022/07/02 03:17:10;;;;;;;9.35;7.57;;;12.70;99.90;;;;;;5020737;28;20254;-72
2022/07/02 03:19:35;;;;;;;12.00;8.40;;;12.70;99.90;;;;;;5039488;28;20230;-73
2022/07/02 03:22:01;;;;;;;9.23;8.32;;;12.80;99.90;;;;;;5050079;28;20589;-73
2022/07/02 03:24:27;;;;;;;16.65;8.85;;;12.80;99.90;;;;;;5049960;28;20262;-72
2022/07/02 03:26:52;;;;;;;12.88;9.05;;;12.80;99.90;;;;;;5055047;28;20199;-73
2022/07/02 03:29:18;;;;;;;17.83;8.70;;;12.80;99.90;;;;;;5035043;28;20186;-73
2022/07/02 03:31:43;;;;;;;17.88;8.88;;;12.90;99.90;;;;;;5014761;28;20188;-72
2022/07/02 03:34:09;;;;;;;12.98;8.52;;;12.90;99.90;;;;;;5015127;28;20677;-73
2022/07/02 03:36:34;;;;;;;10.13;8.18;;;12.90;99.90;;;;;;5019445;28;20177;-73
2022/07/02 03:39:00;;;;;;;9.23;7.88;;;12.90;99.90;;;;;;5034680;28;20165;-73
2022/07/02 03:41:26;;;;;;;7.18;6.55;;;12.90;99.90;;;;;;5032857;28;20230;-73
2022/07/02 03:43:51;;;;;;;8.25;7.55;;;12.90;99.90;;;;;;5040505;28;20655;-72
2022/07/02 03:46:18;;;;;;;7.95;6.80;;;13.00;99.90;;;;;;5040292;28;20218;-73
2022/07/02 03:48:44;;;;;;;8.15;7.05;;;13.00;99.90;;;;;;5045843;28;20314;-72
2022/07/02 03:51:10;;;;;;;8.50;7.68;;;13.00;99.90;;;;;;5044041;28;20722;-72
2022/07/02 03:53:35;;;;;;;9.07;7.57;;;13.00;99.90;;;;;;5053621;28;20227;-72
2022/07/02 03:56:02;;;;;;;11.90;7.63;;;13.00;99.90;;;;;;5015995;28;20521;-72
2022/07/02 03:58:28;;;;;;;10.63;8.18;;;13.10;99.90;;;;;;5012127;28;20203;-73
2022/07/02 04:00:53;;;;;;;9.07;8.18;;;13.20;99.90;;;;;;5026876;28;20189;-72
2022/07/02 04:03:19;;;;;;;8.93;7.25;;;13.10;99.90;;;;;;5034006;28;20177;-72
2022/07/02 04:05:44;;;;;;;22.95;7.68;;;13.20;99.90;;;;;;5034544;28;20226;-72
2022/07/02 04:08:10;;;;;;;19.90;7.70;;;13.10;99.90;;;;;;5028047;28;20201;-72
2022/07/02 04:10:36;;;;;;;7.88;7.28;;;13.10;99.90;;;;;;5014656;28;20280;-73
2022/07/02 04:13:01;;;;;;;8.40;7.38;;;13.10;99.90;;;;;;5013893;28;20555;-72
2022/07/02 04:15:27;;;;;;;9.80;6.85;;;13.10;99.90;;;;;;5030988;28;20199;-72
2022/07/02 04:17:53;;;;;;;8.07;7.10;;;13.00;99.90;;;;;;5040704;28;20209;-74
2022/07/02 04:20:18;;;;;;;8.00;7.20;;;13.00;99.90;;;;;;5045613;28;20771;-73
2022/07/02 04:22:44;;;;;;;10.88;7.82;;;13.10;99.90;;;;;;5052287;28;20214;-74
2022/07/02 04:25:10;;;;;;;7.60;7.00;;;13.20;99.90;;;;;;5022697;28;20253;-73
2022/07/02 04:27:36;;;;;;;6.40;5.90;;;13.20;99.90;;;;;;5025616;28;20204;-74
2022/07/02 04:30:01;;;;;;;6.25;5.65;;;13.30;99.90;;;;;;5023463;28;20176;-72
2022/07/02 04:32:27;;;;;;;14.25;6.00;;;13.40;99.90;;;;;;5013433;28;20610;-72
2022/07/02 04:34:53;;;;;;;13.05;5.45;;;13.40;99.90;;;;;;5013768;28;20193;-72
2022/07/02 04:37:18;;;;;;;7.72;5.63;;;13.40;99.90;;;;;;5013898;28;20169;-72
2022/07/02 04:39:44;;;;;;;5.38;5.00;;;13.60;99.90;;;;;;5013845;28;20207;-72
2022/07/02 04:42:10;;;;;;;5.63;5.22;;;13.60;99.90;;;;;;5012213;28;20208;-72
2022/07/02 04:44:35;;;;;;;5.90;5.20;;;13.60;99.90;;;;;;5014500;28;20648;-72
2022/07/02 04:47:01;;;;;;;6.50;5.90;;;13.60;99.90;;;;;;5013086;28;20219;-73
2022/07/02 04:49:27;;;;;;;10.20;5.90;;;13.60;99.90;;;;;;5013467;28;20173;-71
2022/07/02 04:51:52;;;;;;;8.45;4.85;;;13.60;99.90;;;;;;5013289;28;20261;-74
2022/07/02 04:54:18;;;;;;;7.90;5.07;;;13.60;99.90;;;;;;5013289;28;20481;-72
2022/07/02 04:56:44;;;;;;;7.88;5.07;;;13.80;99.90;;;;;;5019909;28;20184;-72
2022/07/02 04:59:09;;;;;;;6.22;5.72;;;13.80;99.90;;;;;;5033183;28;20636;-73
2022/07/02 05:01:35;;;;;;;6.03;5.43;;;13.80;99.90;;;;;;5033091;28;20215;-72
2022/07/02 05:04:01;;;;;;;7.35;4.88;;;13.80;99.90;;;;;;5028780;28;20745;-73
2022/07/02 05:06:26;;;;;;;5.38;5.00;;;13.80;99.90;;;;;;5013720;28;20169;-73
2022/07/02 05:08:52;;;;;;;6.38;5.75;;;13.80;99.90;;;;;;5013036;28;20165;-76
2022/07/02 05:11:19;;;;;;;5.78;5.32;;;13.90;99.90;;;;;;5012903;28;20212;-73
2022/07/02 05:13:49;;;;;;;5.53;5.07;;;14.10;99.90;;;;;;5012966;28;20197;-73
2022/07/02 05:16:15;;;;;;;6.97;4.47;;;14.20;99.90;;;;;;5013094;28;20170;-73
2022/07/02 05:18:41;;;;;;;5.00;4.53;;;14.30;99.90;;;;;;5013545;28;20704;-73
2022/07/02 05:21:07;;;;;;;4.75;4.32;;;14.40;99.90;;;;;;5013364;28;20173;-73
2022/07/02 05:23:32;;;;;;;4.93;4.47;;;14.50;99.90;;;;;;5012683;28;20264;-73
2022/07/02 05:25:58;;;;;;;4.30;4.03;;;14.60;99.90;;;;;;5013099;28;20180;-72
2022/07/02 05:28:24;;;;;;;5.18;4.80;;;14.70;99.90;;;;;;5013701;28;20621;-73
2022/07/02 05:30:51;;;;;;;5.28;4.88;;;14.70;99.90;;;;;;5029703;28;20271;-72
2022/07/02 05:33:17;;;;;;;5.32;4.75;;;14.60;99.90;;;;;;5024797;28;20178;-72
2022/07/02 05:35:43;;;;;;;4.10;3.80;;;14.70;99.90;;;;;;5038267;28;20184;-73
2022/07/02 05:38:08;;;;;;;4.40;4.05;;;14.80;99.90;;;;;;5044156;28;20186;-73
2022/07/02 05:40:34;;;;;;;4.63;4.32;;;14.80;99.90;;;;;;5042349;28;20184;-73
2022/07/02 05:43:00;;;;;;;4.30;3.90;;;14.90;99.90;;;;;;5042658;28;20676;-73
2022/07/02 05:45:26;;;;;;;4.53;4.18;;;15.00;99.90;;;;;;5051788;28;20192;-73
2022/07/02 05:47:52;;;;;;;4.43;4.03;;;15.00;99.90;;;;;;5038965;28;20212;-73
2022/07/02 05:50:17;;;;;;;5.00;4.68;;;15.30;99.90;;;;;;5032468;28;20173;-72
2022/07/02 05:52:43;;;;;;;4.57;4.28;;;15.40;99.90;;;;;;5032154;28;20164;-72
2022/07/02 05:55:09;;;;;;;4.80;4.50;;;15.40;99.90;;;;;;5024773;28;20200;-72
2022/07/02 05:57:34;;;;;;;6.10;5.60;;;15.60;99.90;;;;;;5012945;28;20247;-73
2022/07/02 06:00:00;;;;;;;5.40;5.00;;;15.70;99.90;;;;;;5012654;28;20252;-73
2022/07/02 06:02:26;;;;;;;5.63;5.07;;;15.90;99.90;;;;;;5015865;28;20182;-73
2022/07/02 06:04:51;;;;;;;5.45;4.95;;;16.10;99.90;;;;;;5023092;28;20207;-73
2022/07/02 06:10:01;;;;;;;5.55;5.15;;;16.10;99.90;;;;;;5021961;28;20183;-73
2022/07/02 06:12:27;;;;;;;5.40;4.90;;;16.10;99.90;;;;;;5018146;28;20177;-72
2022/07/02 06:14:53;;;;;;;5.15;4.75;;;16.20;99.90;;;;;;5023870;28;20283;-74
2022/07/02 06:17:18;;;;;;;11.10;5.35;;;16.10;99.90;;;;;;5017764;28;20183;-74
2022/07/02 06:19:47;;;;;;;4.60;4.30;;;15.90;99.90;;;;;;5025825;28;20186;-76
2022/07/02 06:22:13;;;;;;;5.53;5.13;;;16.00;99.90;;;;;;5030845;28;20266;-74
2022/07/02 06:24:38;;;;;;;4.88;4.55;;;16.10;99.90;;;;;;5024002;28;20224;-74
2022/07/02 06:27:05;;;;;;;5.53;5.10;;;16.00;99.90;;;;;;5025192;28;20264;-73
2022/07/02 06:29:30;;;;;;;5.15;4.78;;;16.20;99.90;;;;;;5027677;28;20180;-73
2022/07/02 06:31:56;;;;;;;5.03;4.72;;;16.30;99.90;;;;;;5024058;28;20249;-73
2022/07/02 06:34:21;;;;;;;5.15;4.60;;;16.30;99.90;;;;;;5025992;28;20212;-73
2022/07/02 06:36:47;;;;;;;5.38;4.88;;;16.50;99.90;;;;;;5025831;28;20195;-72
2022/07/02 06:39:13;;;;;;;5.68;5.25;;;16.70;99.90;;;;;;5025804;28;20722;-73
2022/07/02 06:44:23;;;;;;;4.53;4.22;;;16.90;99.90;;;;;;5015678;28;20212;-73
2022/07/02 06:46:49;;;;;;;5.00;4.60;;;16.90;99.90;;;;;;5015667;28;20189;-73
2022/07/02 06:49:14;;;;;;;5.28;4.88;;;17.00;99.90;;;;;;5015767;28;20655;-74
2022/07/02 06:51:40;;;;;;;4.95;4.65;;;17.00;99.90;;;;;;5015631;28;20663;-75
2022/07/02 06:54:06;;;;;;;5.35;4.97;;;16.90;99.90;;;;;;5015454;28;20227;-76
2022/07/02 06:56:35;;;;;;;5.75;5.32;;;17.10;99.90;;;;;;5015224;28;20532;-74
2022/07/02 06:59:01;;;;;;;5.35;5.00;;;17.10;99.90;;;;;;5015337;28;20180;-74
2022/07/02 07:01:26;;;;;;;4.65;4.35;;;17.00;99.90;;;;;;5021702;28;20195;-73
2022/07/02 07:03:52;;;;;;;5.10;4.80;;;17.30;99.90;;;;;;5026841;28;20271;-75
2022/07/02 07:06:22;;;;;;;5.32;4.93;;;17.20;99.90;;;;;;5025880;28;20208;-76
2022/07/02 07:08:52;;;;;;;4.68;4.38;;;17.40;99.90;;;;;;5032682;28;20683;-75
2022/07/02 07:11:21;;;;;;;4.97;4.50;;;17.60;99.90;;;;;;5029272;28;20187;-75
2022/07/02 07:13:48;;;;;;;4.97;4.53;;;17.60;99.90;;;;;;5038591;28;20283;-75
2022/07/02 07:16:14;;;;;;;5.35;4.97;;;17.60;99.90;;;;;;5046009;28;20254;-75
2022/07/02 07:18:39;;;;;;;5.03;4.63;;;17.60;99.90;;;;;;5037071;28;20337;-74
2022/07/02 07:21:05;;;;;;;5.72;5.25;;;17.90;99.90;;;;;;5037217;28;20185;-73
2022/07/02 07:23:31;;;;;;;5.00;4.70;;;17.80;99.90;;;;;;5031285;28;20315;-75
2022/07/02 07:25:57;;;;;;;4.82;4.53;;;17.50;99.90;;;;;;5023765;28;20227;-75
2022/07/02 07:28:26;;;;;;;5.18;4.80;;;17.60;99.90;;;;;;5023651;28;20239;-75
2022/07/02 07:30:53;;;;;;;5.18;4.70;;;17.80;99.90;;;;;;5023807;28;20189;-75
2022/07/02 07:33:19;;;;;;;5.13;4.72;;;18.10;99.90;;;;;;5023329;28;20164;-77
2022/07/02 07:35:45;;;;;;;4.80;4.40;;;18.40;99.90;;;;;;5022483;28;20333;-74
2022/07/02 07:38:11;;;;;;;4.63;4.32;;;18.50;99.90;;;;;;5028439;28;20224;-76
2022/07/02 07:40:36;;;;;;;4.75;4.28;;;18.60;99.90;;;;;;5014456;28;20177;-75
2022/07/02 07:43:03;;;;;;;4.97;4.60;;;18.90;99.90;;;;;;5034119;28;20263;-75
2022/07/02 07:45:29;;;;;;;5.68;5.28;;;19.40;99.90;;;;;;5031664;28;20615;-75
2022/07/02 07:47:54;;;;;;;5.20;4.82;;;19.60;99.90;;;;;;5041108;28;20264;-75
2022/07/02 07:50:20;;;;;;;4.93;4.63;;;19.70;99.90;;;;;;5047333;28;20169;-80
2022/07/02 07:52:46;;;;;;;5.10;4.80;;;19.90;99.90;;;;;;5035469;28;20181;-79
2022/07/02 07:55:11;;;;;;;3.92;3.72;;;20.20;99.90;;;;;;5031393;28;20657;-74
2022/07/02 07:57:37;;;;;;;5.07;4.78;;;19.80;99.90;;;;;;5023069;28;20225;-75
2022/07/02 08:00:04;;;;;;;4.97;4.68;;;20.20;99.90;;;;;;5038715;28;20655;-74
2022/07/02 08:02:30;;;;;;;4.97;4.63;;;20.50;99.90;;;;;;5052849;28;20172;-74
2022/07/02 08:04:56;;;;;;;5.25;4.85;;;20.80;99.90;;;;;;5053786;28;20199;-75
2022/07/02 08:07:21;;;;;;;4.15;3.95;;;21.10;99.90;;;;;;5036011;28;20207;-75
2022/07/02 08:09:52;;;;;;;4.50;4.30;;;21.50;99.90;;;;;;5033577;28;20177;-75
2022/07/02 08:12:21;;;;;;;4.00;3.70;;;21.70;99.90;;;;;;5033264;28;20176;-73
2022/07/02 08:14:47;;;;;;;4.53;4.22;;;22.10;99.90;;;;;;5016028;28;20244;-72
2022/07/02 08:17:13;;;;;;;4.47;4.18;;;22.30;99.90;;;;;;5016386;28;20185;-72
2022/07/02 08:19:39;;;;;;;4.65;4.18;;;22.60;99.90;;;;;;5032073;28;20262;-72
2022/07/02 08:22:04;;;;;;;4.43;4.13;;;22.20;99.90;;;;;;5040529;28;20187;-72
2022/07/02 08:24:30;;;;;;;4.03;3.83;;;22.30;99.90;;;;;;5036247;28;20590;-72
2022/07/02 08:26:56;;;;;;;3.83;3.63;;;22.30;99.90;;;;;;5026755;28;20205;-77
2022/07/02 08:29:21;;;;;;;4.15;3.95;;;22.40;99.90;;;;;;5028776;28;20192;-77
2022/07/02 08:31:47;;;;;;;3.60;3.40;;;22.20;99.90;;;;;;5025805;28;20207;-76
2022/07/02 08:34:12;;;;;;;3.95;3.75;;;22.30;99.90;;;;;;5022092;28;20905;-76
2022/07/02 08:36:38;;;;;;;4.10;3.80;;;22.20;99.90;;;;;;5021135;28;20193;-76
2022/07/02 08:39:04;;;;;;;4.15;3.90;;;22.40;99.90;;;;;;5022243;28;20187;-76
2022/07/02 08:41:30;;;;;;;3.88;3.67;;;22.80;99.90;;;;;;5021548;28;20177;-76
2022/07/02 08:43:59;;;;;;;3.78;3.45;;;23.00;99.90;;;;;;5032701;28;20478;-76
2022/07/02 08:46:26;;;;;;;3.90;3.70;;;23.40;99.90;;;;;;5027846;28;20698;-77
2022/07/02 08:48:53;;;;;;;4.00;3.80;;;23.30;99.90;;;;;;5021255;28;20738;-76
2022/07/02 08:51:21;;;;;;;4.13;3.92;;;23.10;99.90;;;;;;5021213;28;20174;-76
2022/07/02 08:53:47;;;;;;;4.60;4.30;;;23.50;99.90;;;;;;5025315;28;20205;-76
2022/07/02 08:56:13;;;;;;;3.85;3.65;;;23.60;99.90;;;;;;5030929;28;20189;-75
2022/07/02 08:58:40;;;;;;;3.90;3.70;;;23.00;99.90;;;;;;5023271;28;20169;-75
2022/07/02 09:01:08;;;;;;;4.53;4.32;;;22.80;99.90;;;;;;5019149;28;20182;-74
2022/07/02 09:03:34;;;;;;;3.92;3.72;;;22.80;99.90;;;;;;5027696;28;20644;-74
2022/07/02 09:06:01;;;;;;;5.30;3.53;;;22.80;99.90;;;;;;5023008;28;20183;-74
2022/07/02 09:08:29;;;;;;;3.60;3.40;;;22.70;99.90;;;;;;5015966;28;20288;-75
2022/07/02 09:10:56;;;;;;;3.40;3.20;;;22.80;99.90;;;;;;5017113;28;20213;-74
2022/07/02 09:13:24;;;;;;;3.45;3.30;;;22.70;99.90;;;;;;5025499;28;20168;-73
2022/07/02 09:15:51;;;;;;;3.58;3.38;;;22.20;99.90;;;;;;5034088;28;20234;-74
2022/07/02 09:18:17;;;;;;;3.67;3.47;;;21.90;99.90;;;;;;5021151;28;20204;-74
2022/07/02 09:20:43;;;;;;;3.40;3.20;;;21.40;99.90;;;;;;5020810;28;20236;-73
2022/07/02 09:23:13;;;;;;;3.40;3.13;;;21.00;99.90;;;;;;5022063;28;20221;-74
2022/07/02 09:25:40;;;;;;;3.15;3.05;;;20.80;99.90;;;;;;5019965;28;20189;-73
2022/07/02 09:28:06;;;;;;;3.42;3.22;;;20.70;99.90;;;;;;5021442;28;20212;-74
2022/07/02 09:30:36;;;;;;;3.28;3.08;;;20.70;99.90;;;;;;5018215;28;20196;-74
2022/07/02 09:35:47;;;;;;;2.60;2.50;;;20.80;99.90;;;;;;5025885;28;20239;-74
2022/07/02 09:38:12;;;;;;;3.10;2.90;;;21.00;99.90;;;;;;5020167;28;20837;-73
2022/07/02 09:40:50;;;;;;;2.58;2.38;;;21.30;99.90;;;;;;5022628;28;20174;-74
2022/07/02 09:43:27;;;;;;;2.53;2.42;;;22.50;99.90;;;;;;5025678;28;20172;-74
2022/07/02 09:45:54;;;;;;;2.10;2.00;;;25.10;99.90;;;;;;5026490;28;20223;-74
2022/07/02 09:48:20;;;;;;;2.20;2.10;;;27.50;99.90;;;;;;5020562;28;20271;-74
2022/07/02 09:50:46;;;;;;;1.75;1.70;;;29.70;95.50;;;;;;5022337;28;20185;-72
2022/07/02 09:53:12;;;;;;;2.53;2.33;;;31.30;90.80;;;;;;5026165;28;20258;-72
2022/07/02 09:55:38;;;;;;;1.70;1.52;;;31.80;79.20;;;;;;5030144;28;20196;-72
2022/07/02 09:58:04;;;;;;;3.65;1.25;;;32.50;71.40;;;;;;5024174;28;20532;-73
2022/07/02 10:00:33;;;;;;;1.20;1.20;;;33.00;69.80;;;;;;5022567;28;20200;-73
2022/07/02 10:03:01;;;;;;;5.75;1.52;;;34.10;66.50;;;;;;5021804;28;20177;-73
2022/07/02 10:05:31;;;;;;;1.27;1.27;;;35.00;60.60;;;;;;5029906;28;20220;-73
2022/07/02 10:07:59;;;;;;;1.20;1.17;;;35.50;55.10;;;;;;5027351;28;20192;-72
2022/07/02 10:10:33;;;;;;;1.52;1.42;;;35.40;56.90;;;;;;5019067;28;20169;-73
2022/07/02 10:12:58;;;;;;;1.77;1.30;;;36.00;58.40;;;;;;5025442;28;20263;-70
2022/07/02 10:15:29;;;;;;;1.23;1.13;;;36.90;53.00;;;;;;5029390;28;20274;-70
2022/07/02 10:17:56;;;;;;;0.90;0.90;;;36.80;51.80;;;;;;5021420;28;20184;-70
2022/07/02 10:20:25;;;;;;;1.55;1.10;;;36.80;50.90;;;;;;5026295;28;20172;-70
2022/07/02 10:22:52;;;;;;;1.67;1.33;;;36.90;50.90;;;;;;5026953;28;20287;-70
2022/07/02 10:25:18;;;;;;;1.33;1.23;;;36.80;50.40;;;;;;5027577;28;20209;-70
2022/07/02 10:27:46;;;;;;;1.58;1.48;;;36.40;51.20;;;;;;5032866;28;20286;-70
2022/07/02 10:30:12;;;;;;;1.02;1.02;;;36.50;51.90;;;;;;5023543;28;20271;-71
2022/07/02 10:32:48;;;;;;;1.40;0.90;;;37.40;49.50;;;;;;5024247;28;20685;-70
2022/07/02 10:35:16;;;;;;;1.00;1.00;;;37.60;49.40;;;;;;5020076;28;20192;-70
2022/07/02 10:37:43;;;;;;;1.20;1.20;;;37.80;48.70;;;;;;5026518;28;20587;-70
2022/07/02 10:40:09;;;;;;;1.58;1.17;;;38.30;48.00;;;;;;5028330;28;20176;-69
2022/07/02 10:42:40;;;;;;;1.00;1.00;;;38.60;46.60;;;;;;5022351;28;20231;-69
2022/07/02 10:45:09;;;;;;;1.02;1.02;;;38.80;47.60;;;;;;5036105;28;20573;-70
2022/07/02 10:47:35;;;;;;;1.33;1.23;;;39.90;44.90;;;;;;5047364;28;20199;-70
2022/07/02 10:50:01;;;;;;;1.10;1.05;;;39.20;45.60;;;;;;5043505;28;20179;-70
2022/07/02 10:52:49;;;;;;;0.88;0.88;;;39.30;46.50;;;;;;5033526;28;20201;-69
2022/07/02 10:55:28;;;;;;;1.27;1.10;;;39.20;45.90;;;;;;5023103;28;20192;-70
2022/07/02 10:57:57;;;;;;;0.77;0.77;;;38.40;45.70;;;;;;5028085;28;20182;-70
2022/07/02 11:00:33;;;;;;;0.70;0.70;;;38.40;47.10;;;;;;5020374;28;20663;-69
2022/07/02 11:03:15;;;;;;;1.88;1.00;;;38.60;44.20;;;;;;5023930;28;20185;-69
2022/07/02 11:05:56;;;;;;;0.80;0.80;;;39.30;44.40;;;;;;5021920;28;20180;-70
2022/07/02 11:08:46;;;;;;;0.95;0.95;;;38.70;44.40;;;;;;5040004;28;20195;-70
2022/07/02 11:11:35;;;;;;;1.20;1.10;;;37.70;46.70;;;;;;5031084;28;20573;-70
2022/07/02 11:14:11;;;;;;;0.98;0.98;;;38.00;46.60;;;;;;5022013;28;20264;-70
2022/07/02 11:16:38;;;;;;;1.00;0.90;;;38.70;45.20;;;;;;5022630;28;20222;-69
2022/07/02 11:19:24;;;;;;;0.82;0.82;;;38.80;47.20;;;;;;5024680;28;20244;-70
2022/07/02 11:21:57;;;;;;;0.50;0.50;;;38.60;43.40;;;;;;5045286;28;20587;-68
2022/07/02 11:24:24;;;;;;;0.73;0.73;;;38.80;43.40;;;;;;5017754;28;20258;-70
2022/07/02 11:26:51;;;;;;;0.80;0.80;;;38.00;42.80;;;;;;5014014;28;20183;-70
2022/07/02 11:29:17;;;;;;;0.85;0.80;;;38.40;42.60;;;;;;5014172;28;20173;-70
2022/07/02 11:31:46;;;;;;;0.80;0.80;;;38.60;42.10;;;;;;5013850;28;20555;-70
2022/07/02 11:34:20;;;;;;;1.02;1.02;;;38.50;43.00;;;;;;5029860;28;20704;-70
2022/07/02 11:36:46;;;;;;;0.95;0.95;;;38.60;42.60;;;;;;5022589;28;20215;-70
2022/07/02 11:39:14;;;;;;;0.82;0.82;;;38.90;43.40;;;;;;5022359;28;20183;-69
2022/07/02 11:41:40;;;;;;;0.50;0.50;;;39.30;42.00;;;;;;5022663;28;20181;-72
2022/07/02 11:44:14;;;;;;;8.40;0.80;;;39.70;41.00;;;;;;5033543;28;20203;-71
2022/07/02 11:46:42;;;;;;;0.82;0.70;;;39.30;40.80;;;;;;5036285;28;20203;-70
2022/07/02 11:49:16;;;;;;;0.90;0.90;;;39.40;40.20;;;;;;5020673;28;20184;-71
2022/07/02 11:51:44;;;;;;;1.05;0.90;;;38.70;42.10;;;;;;5032281;28;20180;-71
2022/07/02 11:54:10;;;;;;;0.85;0.70;;;38.30;42.30;;;;;;5024849;28;20207;-74
2022/07/02 11:56:40;;;;;;;0.57;0.57;;;37.90;42.50;;;;;;5015933;28;20295;-72
2022/07/02 11:59:10;;;;;;;0.60;0.60;;;37.80;42.80;;;;;;5025040;28;20171;-71
2022/07/02 12:01:37;;;;;;;0.70;0.70;;;37.90;41.60;;;;;;5024865;28;20701;-71
2022/07/02 12:04:04;;;;;;;0.63;0.50;;;38.10;40.50;;;;;;5027638;28;20195;-70
2022/07/02 12:06:41;;;;;;;0.93;0.75;;;38.10;40.30;;;;;;5024040;28;20564;-71
2022/07/02 12:09:09;;;;;;;0.63;0.47;;;38.00;41.60;;;;;;5019578;28;20548;-70
2022/07/02 12:11:38;;;;;;;0.75;0.75;;;38.00;39.60;;;;;;5024154;28;20180;-70
2022/07/02 12:14:05;;;;;;;0.70;0.70;;;37.20;42.10;;;;;;5032486;28;20199;-69
2022/07/02 12:16:32;;;;;;;0.65;0.65;;;37.40;41.50;;;;;;5052977;28;20168;-68
2022/07/02 12:19:04;;;;;;;0.70;0.70;;;37.60;40.60;;;;;;5027174;28;20189;-69
2022/07/02 12:21:39;;;;;;;2.63;0.77;;;37.20;40.30;;;;;;5025251;28;20191;-68
2022/07/02 12:24:31;;;;;;;1.10;0.93;;;36.60;41.00;;;;;;5030035;28;20194;-68
2022/07/02 12:27:03;;;;;;;1.42;0.60;;;37.20;40.20;;;;;;5027955;28;20194;-69
2022/07/02 12:32:19;;;;;;;0.60;0.60;;;37.60;39.80;;;;;;5034811;28;20257;-69
2022/07/02 12:34:54;;;;;;;0.68;0.68;;;38.70;38.90;;;;;;5032731;28;20231;-68
2022/07/02 12:37:34;;;;;;;0.70;0.70;;;39.50;38.20;;;;;;5025846;28;20167;-69
2022/07/02 12:40:11;;;;;;;0.60;0.60;;;39.80;38.60;;;;;;5021407;28;20223;-69
2022/07/02 12:42:49;;;;;;;1.25;0.60;;;40.80;36.40;;;;;;5018379;28;20219;-68
2022/07/02 12:45:29;;;;;;;0.40;0.40;;;42.60;35.80;;;;;;5026232;28;20670;-68
2022/07/02 12:48:08;;;;;;;3.38;0.75;;;43.60;35.90;;;;;;5033358;28;20610;-68
2022/07/02 12:50:38;;;;;;;1.10;0.93;;;44.40;34.20;;;;;;5021983;28;20178;-70
2022/07/02 12:53:06;;;;;;;0.63;0.63;;;46.50;33.10;;;;;;5019782;28;20570;-70
2022/07/02 12:55:36;;;;;;;1.17;0.70;;;47.40;31.80;;;;;;5012639;28;20185;-70
2022/07/02 12:58:12;;;;;;;1.17;0.63;;;49.10;30.50;;;;;;5028958;28;20191;-70
2022/07/02 13:00:43;;;;;;;0.43;0.43;;;49.30;30.00;;;;;;5032466;28;20203;-69